createdAt,value
2023-10-28T00:02:06.974Z,990.3
2023-10-28T00:03:08.590Z,990.2
2023-10-28T00:04:09.882Z,990.3
2023-10-28T00:05:11.381Z,990.3
2023-10-28T00:06:12.838Z,990.2
2023-10-28T00:07:14.371Z,990.3
2023-10-28T00:08:15.814Z,990.3
2023-10-28T00:09:17.135Z,990.3
2023-10-28T00:10:18.472Z,990.3
2023-10-28T00:11:19.825Z,990.3
2023-10-28T00:12:21.237Z,990.2
2023-10-28T00:13:22.694Z,990.3
2023-10-28T00:14:24.081Z,990.3
2023-10-28T00:15:25.660Z,990.3
2023-10-28T00:16:27.064Z,990.3
2023-10-28T00:17:28.407Z,990.3
2023-10-28T00:18:29.684Z,990.3
2023-10-28T00:19:31.011Z,990.3
2023-10-28T00:20:32.313Z,990.3
2023-10-28T00:21:33.790Z,990.4
2023-10-28T00:22:35.104Z,990.4
2023-10-28T00:23:36.375Z,990.4
2023-10-28T00:24:37.810Z,990.4
2023-10-28T00:25:39.266Z,990.4
2023-10-28T00:26:40.523Z,990.3
2023-10-28T00:27:41.935Z,990.3
2023-10-28T00:28:43.293Z,990.3
2023-10-28T00:29:44.715Z,990.3
2023-10-28T00:30:45.917Z,990.3
2023-10-28T00:31:47.176Z,990.3
2023-10-28T00:32:48.596Z,990.3
2023-10-28T00:33:50.085Z,990.3
2023-10-28T00:34:51.497Z,990.3
2023-10-28T00:35:53.014Z,990.3
2023-10-28T00:36:54.445Z,990.3
2023-10-28T00:37:55.707Z,990.3
2023-10-28T00:38:56.983Z,990.3
2023-10-28T00:39:58.397Z,990.3
2023-10-28T00:40:59.769Z,990.3
2023-10-28T00:42:01.209Z,990.3
2023-10-28T00:43:02.640Z,990.3
2023-10-28T00:44:04.187Z,990.3
2023-10-28T00:45:05.694Z,990.3
2023-10-28T00:46:07.150Z,990.3
2023-10-28T00:47:08.540Z,990.3
2023-10-28T00:48:09.989Z,990.3
2023-10-28T00:49:11.339Z,990.3
2023-10-28T00:50:12.733Z,990.3
2023-10-28T00:51:14.070Z,990.3
2023-10-28T00:52:15.515Z,990.3
2023-10-28T00:53:16.768Z,990.3
2023-10-28T00:54:18.135Z,990.3
2023-10-28T00:55:19.529Z,990.2
2023-10-28T00:56:20.993Z,990.3
2023-10-28T00:57:22.366Z,990.3
2023-10-28T00:58:23.664Z,990.3
2023-10-28T00:59:25.037Z,990.3
2023-10-28T01:00:26.474Z,990.3
2023-10-28T01:01:27.853Z,990.3
2023-10-28T01:02:29.200Z,990.2
2023-10-28T01:03:30.577Z,990.2
2023-10-28T01:04:31.823Z,990.2
2023-10-28T01:05:33.098Z,990.2
2023-10-28T01:06:34.640Z,990.2
2023-10-28T01:07:36.077Z,990.3
2023-10-28T01:08:37.297Z,990.2
2023-10-28T01:09:38.615Z,990.2
2023-10-28T01:12:00.638Z,990.2
2023-10-28T01:13:01.992Z,990.3
2023-10-28T01:14:03.487Z,990.2
2023-10-28T01:15:04.819Z,990.3
2023-10-28T01:16:06.225Z,990.3
2023-10-28T01:17:07.533Z,990.3
2023-10-28T01:18:09.191Z,990.3
2023-10-28T01:19:10.521Z,990.3
2023-10-28T01:20:12.051Z,990.3
2023-10-28T01:21:13.423Z,990.3
2023-10-28T01:22:15.153Z,990.3
2023-10-28T01:23:16.671Z,990.3
2023-10-28T01:24:17.902Z,990.3
2023-10-28T01:25:19.248Z,990.2
2023-10-28T01:26:20.739Z,990.3
2023-10-28T01:27:22.665Z,990.2
2023-10-28T01:28:24.134Z,990.2
2023-10-28T01:29:25.506Z,990.3
2023-10-28T01:30:26.860Z,990.3
2023-10-28T01:31:28.354Z,990.2
2023-10-28T01:32:29.825Z,990.3
2023-10-28T01:33:31.220Z,990.3
2023-10-28T01:34:32.622Z,990.2
2023-10-28T01:35:33.981Z,990.3
2023-10-28T01:36:35.540Z,990.3
2023-10-28T01:37:37.150Z,990.3
2023-10-28T01:38:38.463Z,990.3
2023-10-28T01:39:39.835Z,990.3
2023-10-28T01:40:41.397Z,990.2
2023-10-28T01:41:42.998Z,990.3
2023-10-28T01:42:44.670Z,990.3
2023-10-28T01:43:46.097Z,990.2
2023-10-28T01:44:47.478Z,990.3
2023-10-28T01:45:49.019Z,990.3
2023-10-28T01:46:50.388Z,990.3
2023-10-28T01:47:51.889Z,990.3
2023-10-28T01:48:53.051Z,990.3
2023-10-28T01:49:54.440Z,990.3
2023-10-28T01:50:55.827Z,990.3
2023-10-28T01:51:57.232Z,990.3
2023-10-28T01:52:58.933Z,990.2
2023-10-28T01:54:00.375Z,990.3
2023-10-28T01:55:01.670Z,990.3
2023-10-28T01:56:03.039Z,990.3
2023-10-28T01:57:04.299Z,990.3
2023-10-28T01:58:05.676Z,990.3
2023-10-28T01:59:07.048Z,990.3
2023-10-28T02:00:11.225Z,990.3
2023-10-28T02:01:12.648Z,990.3
2023-10-28T02:02:14.082Z,990.3
2023-10-28T02:03:15.632Z,990.3
2023-10-28T02:04:17.024Z,990.3
2023-10-28T02:05:18.381Z,990.3
2023-10-28T02:06:19.594Z,990.2
2023-10-28T02:07:20.875Z,990.3
2023-10-28T02:08:22.189Z,990.3
2023-10-28T02:09:23.652Z,990.3
2023-10-28T02:10:24.960Z,990.3
2023-10-28T02:11:26.382Z,990.4
2023-10-28T02:12:27.937Z,990.3
2023-10-28T02:13:29.272Z,990.4
2023-10-28T02:14:30.655Z,990.4
2023-10-28T02:15:32.149Z,990.4
2023-10-28T02:16:33.434Z,990.4
2023-10-28T02:17:34.840Z,990.4
2023-10-28T02:18:36.269Z,990.5
2023-10-28T02:19:37.599Z,990.5
2023-10-28T02:20:38.925Z,990.5
2023-10-28T02:21:40.434Z,990.5
2023-10-28T02:22:41.742Z,990.5
2023-10-28T02:23:43.219Z,990.5
2023-10-28T02:24:44.703Z,990.5
2023-10-28T02:25:46.024Z,990.5
2023-10-28T02:26:47.546Z,990.5
2023-10-28T02:27:48.865Z,990.5
2023-10-28T02:28:50.176Z,990.4
2023-10-28T02:29:51.449Z,990.5
2023-10-28T02:30:52.835Z,990.5
2023-10-28T02:31:54.364Z,990.5
2023-10-28T02:32:55.837Z,990.4
2023-10-28T02:33:57.086Z,990.5
2023-10-28T02:34:58.411Z,990.5
2023-10-28T02:35:59.721Z,990.5
2023-10-28T02:37:01.029Z,990.5
2023-10-28T02:38:02.523Z,990.5
2023-10-28T02:39:03.805Z,990.6
2023-10-28T02:40:05.124Z,990.6
2023-10-28T02:41:06.388Z,990.5
2023-10-28T02:42:07.769Z,990.5
2023-10-28T02:43:09.078Z,990.5
2023-10-28T02:44:10.509Z,990.5
2023-10-28T02:45:11.804Z,990.5
2023-10-28T02:46:13.441Z,990.5
2023-10-28T02:47:14.769Z,990.6
2023-10-28T02:48:16.020Z,990.6
2023-10-28T02:49:17.302Z,990.6
2023-10-28T02:51:39.865Z,990.6
2023-10-28T02:52:41.263Z,990.5
2023-10-28T02:53:42.710Z,990.6
2023-10-28T02:54:44.174Z,990.5
2023-10-28T02:55:50.577Z,990.6
2023-10-28T02:56:51.827Z,990.6
2023-10-28T02:57:53.166Z,990.6
2023-10-28T02:58:54.574Z,990.6
2023-10-28T02:59:55.879Z,990.6
2023-10-28T03:00:57.387Z,990.5
2023-10-28T03:01:58.713Z,990.6
2023-10-28T03:03:00.278Z,990.5
2023-10-28T03:04:01.791Z,990.5
2023-10-28T03:05:03.315Z,990.6
2023-10-28T03:06:04.762Z,990.6
2023-10-28T03:07:06.185Z,990.5
2023-10-28T03:08:07.824Z,990.6
2023-10-28T03:09:09.435Z,990.5
2023-10-28T03:10:10.725Z,990.5
2023-10-28T03:11:12.518Z,990.5
2023-10-28T03:12:15.320Z,990.6
2023-10-28T03:13:15.145Z,990.6
2023-10-28T03:14:16.504Z,990.6
2023-10-28T03:15:17.940Z,990.6
2023-10-28T03:16:19.237Z,990.6
2023-10-28T03:17:20.794Z,990.6
2023-10-28T03:18:22.165Z,990.6
2023-10-28T03:19:23.543Z,990.7
2023-10-28T03:20:24.857Z,990.7
2023-10-28T03:21:26.367Z,990.6
2023-10-28T03:22:27.833Z,990.6
2023-10-28T03:23:29.206Z,990.7
2023-10-28T03:24:30.592Z,990.6
2023-10-28T03:25:31.966Z,990.6
2023-10-28T03:26:33.359Z,990.6
2023-10-28T03:27:34.852Z,990.6
2023-10-28T03:28:36.196Z,990.6
2023-10-28T03:29:37.598Z,990.6
2023-10-28T03:30:38.891Z,990.7
2023-10-28T03:31:40.580Z,990.6
2023-10-28T03:32:41.858Z,990.7
2023-10-28T03:33:43.330Z,990.7
2023-10-28T03:34:44.699Z,990.7
2023-10-28T03:35:46.055Z,990.7
2023-10-28T03:36:47.356Z,990.7
2023-10-28T03:37:48.725Z,990.7
2023-10-28T03:38:50.082Z,990.7
2023-10-28T03:39:51.421Z,990.7
2023-10-28T03:40:52.873Z,990.7
2023-10-28T03:41:54.352Z,990.7
2023-10-28T03:42:55.624Z,990.6
2023-10-28T03:43:56.992Z,990.7
2023-10-28T03:44:58.310Z,990.7
2023-10-28T03:45:59.668Z,990.7
2023-10-28T03:47:01.025Z,990.7
2023-10-28T03:48:02.642Z,990.6
2023-10-28T03:49:03.950Z,990.7
2023-10-28T03:50:05.377Z,990.7
2023-10-28T03:51:06.723Z,990.7
2023-10-28T03:52:08.200Z,990.8
2023-10-28T03:53:09.651Z,990.8
2023-10-28T03:54:11.061Z,990.8
2023-10-28T03:55:12.464Z,990.8
2023-10-28T03:56:13.842Z,990.8
2023-10-28T03:57:15.404Z,990.9
2023-10-28T03:58:16.654Z,990.8
2023-10-28T03:59:17.987Z,990.8
2023-10-28T04:00:19.487Z,990.9
2023-10-28T04:01:20.926Z,990.9
2023-10-28T04:02:22.260Z,990.9
2023-10-28T04:03:23.660Z,990.8
2023-10-28T04:04:25.102Z,990.8
2023-10-28T04:05:26.469Z,990.9
2023-10-28T04:06:27.720Z,990.9
2023-10-28T04:07:29.034Z,990.9
2023-10-28T04:08:30.362Z,990.9
2023-10-28T04:09:31.894Z,990.9
2023-10-28T04:10:33.342Z,990.9
2023-10-28T04:11:34.768Z,990.9
2023-10-28T04:12:36.174Z,990.9
2023-10-28T04:13:37.495Z,990.9
2023-10-28T04:14:44.325Z,990.8
2023-10-28T04:15:45.754Z,990.8
2023-10-28T04:16:47.131Z,990.8
2023-10-28T04:17:48.447Z,990.8
2023-10-28T04:18:49.914Z,990.8
2023-10-28T04:19:51.316Z,990.8
2023-10-28T04:20:52.837Z,990.8
2023-10-28T04:21:54.254Z,990.8
2023-10-28T04:22:55.709Z,990.8
2023-10-28T04:23:57.141Z,990.8
2023-10-28T04:24:58.527Z,990.8
2023-10-28T04:25:59.872Z,990.8
2023-10-28T04:27:01.248Z,990.9
2023-10-28T04:28:02.787Z,990.8
2023-10-28T04:29:04.022Z,990.8
2023-10-28T04:30:08.319Z,990.8
2023-10-28T04:31:09.697Z,990.8
2023-10-28T04:32:11.130Z,990.8
2023-10-28T04:33:12.665Z,990.8
2023-10-28T04:34:14.263Z,990.8
2023-10-28T04:35:26.798Z,990.8
2023-10-28T04:36:16.938Z,990.8
2023-10-28T04:37:18.307Z,990.8
2023-10-28T04:38:19.798Z,990.8
2023-10-28T04:39:21.112Z,990.8
2023-10-28T04:41:46.244Z,990.8
2023-10-28T04:42:47.756Z,990.8
2023-10-28T04:43:49.281Z,990.8
2023-10-28T04:44:50.828Z,990.8
2023-10-28T04:45:52.209Z,990.8
2023-10-28T04:46:53.591Z,990.8
2023-10-28T04:47:55.047Z,990.7
2023-10-28T04:48:56.375Z,990.7
2023-10-28T04:49:57.926Z,990.7
2023-10-28T04:50:59.313Z,990.7
2023-10-28T04:52:00.727Z,990.7
2023-10-28T04:53:02.154Z,990.7
2023-10-28T04:54:03.516Z,990.7
2023-10-28T04:55:04.868Z,990.7
2023-10-28T04:56:06.337Z,990.8
2023-10-28T04:57:07.698Z,990.8
2023-10-28T04:58:09.128Z,990.8
2023-10-28T04:59:10.598Z,990.8
2023-10-28T05:00:11.850Z,990.8
2023-10-28T05:01:13.352Z,990.7
2023-10-28T05:02:14.530Z,990.8
2023-10-28T05:03:17.003Z,990.7
2023-10-28T05:04:17.447Z,990.7
2023-10-28T05:05:19.014Z,990.8
2023-10-28T05:06:20.369Z,990.8
2023-10-28T05:07:21.686Z,990.8
2023-10-28T05:08:23.084Z,990.8
2023-10-28T05:09:24.373Z,990.8
2023-10-28T05:10:25.675Z,990.8
2023-10-28T05:11:27.043Z,990.8
2023-10-28T05:12:28.632Z,990.8
2023-10-28T05:13:29.888Z,990.7
2023-10-28T05:14:31.333Z,990.7
2023-10-28T05:15:32.766Z,990.7
2023-10-28T05:16:34.258Z,990.7
2023-10-28T05:17:35.701Z,990.7
2023-10-28T05:18:37.067Z,990.7
2023-10-28T05:19:38.535Z,990.7
2023-10-28T05:20:39.877Z,990.6
2023-10-28T05:21:41.192Z,990.6
2023-10-28T05:22:42.504Z,990.6
2023-10-28T05:23:44.200Z,990.6
2023-10-28T05:24:45.462Z,990.6
2023-10-28T05:25:47.070Z,990.7
2023-10-28T05:26:48.370Z,990.7
2023-10-28T05:27:49.878Z,990.7
2023-10-28T05:34:53.613Z,990.7
2023-10-28T05:35:54.943Z,990.7
2023-10-28T05:36:56.262Z,990.7
2023-10-28T05:37:57.865Z,990.7
2023-10-28T05:38:59.147Z,990.7
2023-10-28T05:40:00.563Z,990.7
2023-10-28T05:41:02.042Z,990.7
2023-10-28T05:42:03.572Z,990.7
2023-10-28T05:43:04.916Z,990.7
2023-10-28T05:44:06.332Z,990.7
2023-10-28T05:45:07.671Z,990.7
2023-10-28T05:46:09.081Z,990.7
2023-10-28T05:47:10.567Z,990.7
2023-10-28T05:48:11.877Z,990.7
2023-10-28T05:49:13.206Z,990.7
2023-10-28T05:50:14.856Z,990.7
2023-10-28T05:51:16.098Z,990.7
2023-10-28T05:52:17.450Z,990.7
2023-10-28T05:53:18.773Z,990.7
2023-10-28T05:54:20.108Z,990.7
2023-10-28T05:55:21.620Z,990.7
2023-10-28T05:56:22.916Z,990.7
2023-10-28T05:57:24.276Z,990.7
2023-10-28T05:58:25.667Z,990.7
2023-10-28T05:59:27.256Z,990.8
2023-10-28T06:00:28.973Z,990.7
2023-10-28T06:01:30.434Z,990.7
2023-10-28T06:02:31.843Z,990.8
2023-10-28T06:03:33.544Z,990.8
2023-10-28T06:04:35.119Z,990.8
2023-10-28T06:05:37.409Z,990.8
2023-10-28T06:06:39.171Z,990.8
2023-10-28T06:07:44.001Z,990.8
2023-10-28T06:08:47.736Z,990.8
2023-10-28T06:09:51.431Z,990.8
2023-10-28T06:10:56.531Z,990.8
2023-10-28T06:11:58.265Z,990.9
2023-10-28T06:13:00.108Z,990.9
2023-10-28T06:14:01.456Z,990.9
2023-10-28T06:15:05.484Z,990.9
2023-10-28T06:16:07.118Z,990.9
2023-10-28T06:17:08.444Z,990.9
2023-10-28T06:18:09.864Z,990.9
2023-10-28T06:19:11.342Z,991
2023-10-28T06:20:12.749Z,990.9
2023-10-28T06:21:14.108Z,990.9
2023-10-28T06:22:15.439Z,990.9
2023-10-28T06:23:16.865Z,990.9
2023-10-28T06:24:18.179Z,991
2023-10-28T06:25:19.457Z,991
2023-10-28T06:26:20.885Z,991
2023-10-28T06:27:22.371Z,991
2023-10-28T06:28:23.717Z,991
2023-10-28T06:29:25.192Z,991
2023-10-28T06:30:26.600Z,991
2023-10-28T06:31:27.894Z,991
2023-10-28T06:32:29.448Z,991
2023-10-28T06:33:30.796Z,991
2023-10-28T06:35:42.510Z,991
2023-10-28T06:36:44.073Z,991
2023-10-28T06:37:45.518Z,991
2023-10-28T06:38:46.800Z,991.1
2023-10-28T06:39:49.340Z,991.1
2023-10-28T06:40:49.555Z,991.1
2023-10-28T06:41:50.952Z,991.2
2023-10-28T06:42:52.272Z,991.2
2023-10-28T06:43:53.618Z,991.1
2023-10-28T06:44:54.920Z,991.1
2023-10-28T06:45:56.266Z,991.1
2023-10-28T06:46:57.697Z,991.2
2023-10-28T06:47:59.059Z,991.2
2023-10-28T06:49:00.478Z,991.2
2023-10-28T06:50:01.910Z,991.2
2023-10-28T06:51:03.375Z,991.2
2023-10-28T06:52:04.837Z,991.2
2023-10-28T06:53:06.363Z,991.2
2023-10-28T06:54:07.666Z,991.2
2023-10-28T06:55:08.991Z,991.1
2023-10-28T06:56:10.418Z,991.2
2023-10-28T06:57:11.939Z,991.2
2023-10-28T06:58:13.253Z,991.2
2023-10-28T06:59:14.611Z,991.2
2023-10-28T07:00:16.072Z,991.2
2023-10-28T07:01:17.424Z,991.2
2023-10-28T07:02:18.793Z,991.2
2023-10-28T07:03:20.204Z,991.2
2023-10-28T07:04:21.768Z,991.2
2023-10-28T07:05:23.487Z,991.3
2023-10-28T07:06:24.956Z,991.3
2023-10-28T07:07:26.586Z,991.3
2023-10-28T07:08:28.038Z,991.3
2023-10-28T07:09:29.422Z,991.3
2023-10-28T07:10:31.004Z,991.3
2023-10-28T07:11:32.327Z,991.3
2023-10-28T07:12:33.628Z,991.3
2023-10-28T07:13:34.968Z,991.3
2023-10-28T07:14:36.348Z,991.3
2023-10-28T07:15:37.709Z,991.3
2023-10-28T07:16:39.276Z,991.3
2023-10-28T07:17:40.720Z,991.3
2023-10-28T07:18:41.988Z,991.3
2023-10-28T07:19:43.419Z,991.3
2023-10-28T07:20:45.169Z,991.3
2023-10-28T07:21:46.575Z,991.3
2023-10-28T07:22:47.975Z,991.3
2023-10-28T07:23:49.328Z,991.3
2023-10-28T07:24:50.775Z,991.3
2023-10-28T07:25:52.226Z,991.3
2023-10-28T07:26:53.652Z,991.3
2023-10-28T07:27:54.997Z,991.3
2023-10-28T07:28:56.438Z,991.2
2023-10-28T07:29:57.881Z,991.2
2023-10-28T07:30:59.376Z,991.3
2023-10-28T07:32:00.794Z,991.3
2023-10-28T07:33:02.338Z,991.3
2023-10-28T07:34:03.522Z,991.3
2023-10-28T07:35:04.848Z,991.3
2023-10-28T07:36:06.147Z,991.3
2023-10-28T07:37:07.592Z,991.3
2023-10-28T07:38:09.074Z,991.3
2023-10-28T07:40:30.405Z,991.3
2023-10-28T07:41:31.836Z,991.4
2023-10-28T07:42:33.340Z,991.4
2023-10-28T07:43:34.863Z,991.4
2023-10-28T07:44:36.389Z,991.4
2023-10-28T07:45:37.772Z,991.4
2023-10-28T07:46:39.160Z,991.4
2023-10-28T07:47:40.641Z,991.4
2023-10-28T07:48:42.000Z,991.4
2023-10-28T07:49:43.507Z,991.4
2023-10-28T07:50:45.059Z,991.5
2023-10-28T07:51:46.740Z,991.5
2023-10-28T07:52:48.123Z,991.4
2023-10-28T07:53:49.665Z,991.5
2023-10-28T07:54:51.179Z,991.5
2023-10-28T07:55:52.725Z,991.5
2023-10-28T07:56:54.122Z,991.5
2023-10-28T07:57:55.690Z,991.5
2023-10-28T07:58:57.092Z,991.5
2023-10-28T07:59:58.392Z,991.6
2023-10-28T08:01:00.319Z,991.6
2023-10-28T08:02:15.327Z,991.5
2023-10-28T08:03:10.005Z,991.5
2023-10-28T08:04:11.368Z,991.5
2023-10-28T08:05:15.689Z,991.5
2023-10-28T08:06:24.210Z,991.6
2023-10-28T08:07:18.570Z,991.6
2023-10-28T08:08:20.186Z,991.6
2023-10-28T08:09:21.667Z,991.5
2023-10-28T08:10:23.071Z,991.6
2023-10-28T08:11:24.936Z,991.6
2023-10-28T08:12:26.445Z,991.6
2023-10-28T08:13:27.965Z,991.6
2023-10-28T08:14:29.714Z,991.6
2023-10-28T08:15:31.076Z,991.6
2023-10-28T08:16:32.558Z,991.6
2023-10-28T08:17:33.852Z,991.6
2023-10-28T08:18:40.845Z,991.6
2023-10-28T08:19:45.581Z,991.6
2023-10-28T08:20:46.971Z,991.6
2023-10-28T08:21:48.553Z,991.7
2023-10-28T08:22:52.919Z,991.6
2023-10-28T08:23:54.470Z,991.6
2023-10-28T08:24:56.062Z,991.6
2023-10-28T08:25:57.709Z,991.7
2023-10-28T08:26:59.382Z,991.6
2023-10-28T08:28:00.982Z,991.6
2023-10-28T08:29:02.332Z,991.7
2023-10-28T08:30:03.695Z,991.6
2023-10-28T08:31:05.014Z,991.7
2023-10-28T08:32:06.469Z,991.7
2023-10-28T08:33:08.136Z,991.7
2023-10-28T08:34:09.584Z,991.7
2023-10-28T08:35:11.322Z,991.7
2023-10-28T08:36:12.805Z,991.6
2023-10-28T08:37:14.211Z,991.7
2023-10-28T08:38:15.870Z,991.7
2023-10-28T08:39:17.367Z,991.7
2023-10-28T08:40:18.902Z,991.8
2023-10-28T08:41:20.335Z,991.7
2023-10-28T08:42:21.674Z,991.8
2023-10-28T08:43:23.355Z,991.8
2023-10-28T08:44:24.865Z,991.8
2023-10-28T08:45:26.256Z,991.8
2023-10-28T08:46:27.580Z,991.7
2023-10-28T08:47:29.077Z,991.8
2023-10-28T08:48:30.398Z,991.8
2023-10-28T08:49:31.865Z,991.9
2023-10-28T08:50:33.149Z,991.9
2023-10-28T08:51:34.441Z,991.9
2023-10-28T08:52:35.755Z,991.9
2023-10-28T08:53:37.324Z,991.9
2023-10-28T08:54:38.784Z,991.9
2023-10-28T08:55:40.218Z,992
2023-10-28T08:56:41.586Z,992
2023-10-28T08:57:42.979Z,992
2023-10-28T08:58:44.332Z,992
2023-10-28T08:59:45.927Z,992
2023-10-28T09:00:48.198Z,992
2023-10-28T09:01:48.780Z,992
2023-10-28T09:02:50.297Z,992
2023-10-28T09:03:51.755Z,992
2023-10-28T09:04:53.129Z,992.1
2023-10-28T09:05:54.587Z,992.1
2023-10-28T09:06:56.023Z,992
2023-10-28T09:07:57.549Z,992.1
2023-10-28T09:08:58.932Z,992.1
2023-10-28T09:10:00.597Z,992.1
2023-10-28T09:11:01.982Z,992.1
2023-10-28T09:12:03.293Z,992.1
2023-10-28T09:13:04.833Z,992.1
2023-10-28T09:14:06.336Z,992.1
2023-10-28T09:15:07.796Z,992.1
2023-10-28T09:16:09.340Z,992.1
2023-10-28T09:17:10.770Z,992.1
2023-10-28T09:18:12.106Z,992.1
2023-10-28T09:19:13.442Z,992.1
2023-10-28T09:20:14.844Z,992.1
2023-10-28T09:21:16.259Z,992.1
2023-10-28T09:22:17.506Z,992.2
2023-10-28T09:23:18.924Z,992.2
2023-10-28T09:24:20.344Z,992.2
2023-10-28T09:25:21.842Z,992.2
2023-10-28T09:26:23.342Z,992.2
2023-10-28T09:27:24.596Z,992.2
2023-10-28T09:28:25.973Z,992.2
2023-10-28T09:29:27.545Z,992.3
2023-10-28T09:30:29.124Z,992.3
2023-10-28T09:31:30.270Z,992.3
2023-10-28T09:32:31.626Z,992.3
2023-10-28T09:33:33.103Z,992.3
2023-10-28T09:34:34.389Z,992.2
2023-10-28T09:35:35.855Z,992.2
2023-10-28T09:36:37.099Z,992.2
2023-10-28T09:37:38.746Z,992.2
2023-10-28T09:38:40.062Z,992.2
2023-10-28T09:39:41.384Z,992.2
2023-10-28T09:40:42.697Z,992.2
2023-10-28T09:41:44.242Z,992.2
2023-10-28T09:42:45.532Z,992.2
2023-10-28T09:43:46.919Z,992.3
2023-10-28T09:44:48.218Z,992.3
2023-10-28T09:45:49.696Z,992.3
2023-10-28T09:46:51.180Z,992.3
2023-10-28T09:47:52.627Z,992.4
2023-10-28T09:48:54.192Z,992.3
2023-10-28T09:49:55.847Z,992.3
2023-10-28T09:50:57.374Z,992.3
2023-10-28T09:51:58.780Z,992.3
2023-10-28T09:53:00.404Z,992.3
2023-10-28T09:54:01.892Z,992.3
2023-10-28T09:55:03.413Z,992.3
2023-10-28T09:56:05.124Z,992.3
2023-10-28T09:57:06.714Z,992.3
2023-10-28T09:58:08.183Z,992.3
2023-10-28T09:59:09.600Z,992.3
2023-10-28T10:00:11.409Z,992.3
2023-10-28T10:01:12.902Z,992.3
2023-10-28T10:02:14.313Z,992.3
2023-10-28T10:03:15.615Z,992.3
2023-10-28T10:04:16.993Z,992.3
2023-10-28T10:05:18.405Z,992.3
2023-10-28T10:06:19.806Z,992.3
2023-10-28T10:07:21.350Z,992.3
2023-10-28T10:08:22.837Z,992.3
2023-10-28T10:09:24.299Z,992.3
2023-10-28T10:10:25.826Z,992.3
2023-10-28T10:11:31.790Z,992.4
2023-10-28T10:12:33.281Z,992.4
2023-10-28T10:13:34.587Z,992.3
2023-10-28T10:14:36.127Z,992.4
2023-10-28T10:15:37.596Z,992.3
2023-10-28T10:16:38.908Z,992.3
2023-10-28T10:17:40.352Z,992.3
2023-10-28T10:18:41.629Z,992.3
2023-10-28T10:19:42.957Z,992.3
2023-10-28T10:20:44.531Z,992.3
2023-10-28T10:21:45.893Z,992.3
2023-10-28T10:22:47.336Z,992.3
2023-10-28T10:23:48.777Z,992.3
2023-10-28T10:24:50.255Z,992.3
2023-10-28T10:25:51.653Z,992.4
2023-10-28T10:26:52.926Z,992.3
2023-10-28T10:27:54.299Z,992.3
2023-10-28T10:28:55.770Z,992.3
2023-10-28T10:29:57.111Z,992.3
2023-10-28T10:30:58.641Z,992.3
2023-10-28T10:31:59.988Z,992.3
2023-10-28T10:33:01.532Z,992.3
2023-10-28T10:34:02.741Z,992.3
2023-10-28T10:36:24.570Z,992.3
2023-10-28T10:37:25.973Z,992.3
2023-10-28T10:38:27.294Z,992.2
2023-10-28T10:39:28.665Z,992.2
2023-10-28T10:40:30.007Z,992.2
2023-10-28T10:41:31.598Z,992.2
2023-10-28T10:42:32.889Z,992.2
2023-10-28T10:43:34.362Z,992.2
2023-10-28T10:44:39.546Z,992.2
2023-10-28T10:45:43.644Z,992.2
2023-10-28T10:46:45.048Z,992.2
2023-10-28T10:47:46.684Z,992.2
2023-10-28T10:48:48.475Z,992.2
2023-10-28T10:49:49.310Z,992.2
2023-10-28T10:50:50.649Z,992.2
2023-10-28T10:51:52.128Z,992.2
2023-10-28T10:52:53.467Z,992.1
2023-10-28T10:53:54.845Z,992.1
2023-10-28T10:54:56.118Z,992
2023-10-28T10:55:57.487Z,992
2023-10-28T10:56:58.750Z,992.1
2023-10-28T10:58:00.123Z,992
2023-10-28T10:59:01.536Z,992.1
2023-10-28T11:00:03.151Z,992.1
2023-10-28T11:01:08.713Z,992.1
2023-10-28T11:02:06.262Z,992.2
2023-10-28T11:03:07.780Z,992.1
2023-10-28T11:04:09.191Z,992.2
2023-10-28T11:05:10.732Z,992.1
2023-10-28T11:06:12.090Z,992.2
2023-10-28T11:07:13.418Z,992.1
2023-10-28T11:08:14.848Z,992.2
2023-10-28T11:09:16.167Z,992.2
2023-10-28T11:10:17.465Z,992.1
2023-10-28T11:11:18.961Z,992.1
2023-10-28T11:12:20.376Z,992.1
2023-10-28T11:13:21.849Z,992.2
2023-10-28T11:14:23.452Z,992.1
2023-10-28T11:15:25.243Z,992.1
2023-10-28T11:16:26.705Z,992.1
2023-10-28T11:17:28.147Z,992
2023-10-28T11:18:29.559Z,992
2023-10-28T11:19:31.000Z,992.1
2023-10-28T11:20:32.490Z,992
2023-10-28T11:21:33.816Z,992
2023-10-28T11:22:35.160Z,992
2023-10-28T11:23:36.485Z,991.9
2023-10-28T11:24:37.841Z,992
2023-10-28T11:25:39.157Z,991.9
2023-10-28T11:26:40.490Z,991.9
2023-10-28T11:27:41.876Z,991.9
2023-10-28T11:28:43.222Z,991.9
2023-10-28T11:29:44.518Z,991.9
2023-10-28T11:30:45.868Z,991.9
2023-10-28T11:31:47.359Z,991.8
2023-10-28T11:32:48.713Z,991.9
2023-10-28T11:33:49.976Z,991.9
2023-10-28T11:36:11.715Z,991.9
2023-10-28T11:37:13.423Z,991.9
2023-10-28T11:38:15.111Z,991.8
2023-10-28T11:39:16.818Z,991.8
2023-10-28T11:40:18.392Z,991.9
2023-10-28T11:41:19.880Z,991.9
2023-10-28T11:42:21.466Z,991.9
2023-10-28T11:43:23.084Z,991.9
2023-10-28T11:44:24.584Z,991.8
2023-10-28T11:45:26.069Z,991.8
2023-10-28T11:46:27.563Z,991.8
2023-10-28T11:47:29.135Z,991.9
2023-10-28T11:48:30.395Z,991.8
2023-10-28T11:49:31.752Z,991.9
2023-10-28T11:50:33.149Z,991.8
2023-10-28T11:51:34.651Z,991.8
2023-10-28T11:52:36.280Z,991.8
2023-10-28T11:53:37.944Z,991.8
2023-10-28T11:54:39.377Z,991.8
2023-10-28T11:55:40.662Z,991.8
2023-10-28T11:56:42.222Z,991.8
2023-10-28T11:57:43.732Z,991.8
2023-10-28T11:58:45.337Z,991.8
2023-10-28T11:59:46.792Z,991.8
2023-10-28T12:00:48.492Z,991.8
2023-10-28T12:01:54.765Z,991.8
2023-10-28T12:02:54.380Z,991.8
2023-10-28T12:03:55.976Z,991.9
2023-10-28T12:04:57.431Z,991.8
2023-10-28T12:05:58.842Z,991.9
2023-10-28T12:07:00.190Z,991.9
2023-10-28T12:08:01.678Z,991.9
2023-10-28T12:09:03.079Z,992
2023-10-28T12:10:07.463Z,991.9
2023-10-28T12:11:09.071Z,991.9
2023-10-28T12:12:10.749Z,992
2023-10-28T12:13:12.148Z,992
2023-10-28T12:14:13.748Z,991.9
2023-10-28T12:15:15.148Z,991.9
2023-10-28T12:16:16.639Z,991.9
2023-10-28T12:17:18.321Z,992
2023-10-28T12:18:19.806Z,991.9
2023-10-28T12:19:21.430Z,991.9
2023-10-28T12:20:23.027Z,991.9
2023-10-28T12:21:24.647Z,991.9
2023-10-28T12:22:26.057Z,991.9
2023-10-28T12:23:27.471Z,991.9
2023-10-28T12:24:28.844Z,992
2023-10-28T12:26:23.559Z,991.9
2023-10-28T12:27:24.789Z,991.9
2023-10-28T12:28:26.162Z,991.9
2023-10-28T12:29:27.597Z,992
2023-10-28T12:30:28.947Z,991.9
2023-10-28T12:31:30.768Z,992
2023-10-28T12:32:32.277Z,992
2023-10-28T12:33:35.711Z,992.1
2023-10-28T12:34:35.250Z,992.1
2023-10-28T12:35:36.728Z,992.1
2023-10-28T12:36:38.264Z,992.1
2023-10-28T12:37:39.788Z,992.1
2023-10-28T12:38:41.357Z,992.2
2023-10-28T12:39:42.939Z,992.1
2023-10-28T12:40:44.398Z,992.1
2023-10-28T12:41:46.074Z,992.1
2023-10-28T12:42:47.548Z,992.1
2023-10-28T12:43:49.156Z,992.2
2023-10-28T12:44:50.830Z,992.2
2023-10-28T12:45:52.266Z,992.2
2023-10-28T12:46:53.644Z,992.2
2023-10-28T12:47:55.175Z,992.2
2023-10-28T12:48:56.586Z,992.2
2023-10-28T12:49:57.979Z,992.2
2023-10-28T12:50:59.282Z,992.2
2023-10-28T12:52:00.735Z,992.3
2023-10-28T12:53:02.236Z,992.2
2023-10-28T12:54:03.623Z,992.2
2023-10-28T12:55:05.020Z,992.3
2023-10-28T12:56:06.506Z,992.3
2023-10-28T12:57:10.992Z,992.2
2023-10-28T12:58:17.742Z,992.3
2023-10-28T12:59:16.773Z,992.3
2023-10-28T13:00:20.852Z,992.3
2023-10-28T13:01:22.340Z,992.3
2023-10-28T13:02:23.984Z,992.3
2023-10-28T13:03:25.343Z,992.3
2023-10-28T13:04:26.852Z,992.4
2023-10-28T13:05:37.382Z,992.4
2023-10-28T13:06:38.899Z,992.4
2023-10-28T13:07:40.388Z,992.4
2023-10-28T13:08:41.855Z,992.3
2023-10-28T13:09:43.316Z,992.4
2023-10-28T13:10:44.818Z,992.4
2023-10-28T13:11:46.291Z,992.4
2023-10-28T13:12:47.755Z,992.4
2023-10-28T13:13:49.158Z,992.3
2023-10-28T13:14:50.549Z,992.3
2023-10-28T13:15:52.055Z,992.3
2023-10-28T13:16:55.040Z,992.2
2023-10-28T13:17:55.032Z,992.3
2023-10-28T13:18:56.539Z,992.3
2023-10-28T13:19:58.025Z,992.3
2023-10-28T13:20:59.617Z,992.3
2023-10-28T13:22:01.350Z,992.3
2023-10-28T13:23:02.971Z,992.3
2023-10-28T13:24:04.419Z,992.4
2023-10-28T13:25:05.797Z,992.3
2023-10-28T13:26:07.357Z,992.4
2023-10-28T13:27:08.886Z,992.3
2023-10-28T13:28:10.423Z,992.4
2023-10-28T13:29:12.090Z,992.4
2023-10-28T13:30:13.748Z,992.3
2023-10-28T13:31:15.417Z,992.3
2023-10-28T13:32:16.722Z,992.4
2023-10-28T13:33:18.372Z,992.3